createdAt,value
2018-02-06T00:00:23.954Z,8.33
2018-02-06T00:02:52.233Z,8.03
2018-02-06T00:05:19.992Z,8.20
2018-02-06T00:07:47.867Z,7.30
2018-02-06T00:10:16.565Z,8.80
2018-02-06T00:12:44.493Z,7.63
2018-02-06T00:15:13.444Z,7.03
2018-02-06T00:17:41.862Z,8.87
2018-02-06T00:20:09.546Z,7.73
2018-02-06T00:22:49.066Z,8.93
2018-02-06T00:25:16.783Z,8.93
2018-02-06T00:30:19.257Z,9.37
2018-02-06T00:32:46.920Z,12.03
2018-02-06T00:35:14.687Z,12.47
2018-02-06T00:37:42.342Z,12.33
2018-02-06T00:40:10.045Z,9.10
2018-02-06T00:42:37.726Z,10.43
2018-02-06T00:45:05.452Z,9.27
2018-02-06T00:47:33.906Z,10.27
2018-02-06T00:50:01.605Z,9.20
2018-02-06T00:52:29.334Z,9.57
2018-02-06T00:54:57.076Z,8.50
2018-02-06T00:57:24.753Z,7.53
2018-02-06T00:59:52.414Z,8.10
2018-02-06T01:02:20.110Z,8.27
2018-02-06T01:04:48.471Z,8.73
2018-02-06T01:07:16.941Z,8.37
2018-02-06T01:09:46.180Z,8.23
2018-02-06T01:12:13.912Z,7.27
2018-02-06T01:14:42.317Z,7.13
2018-02-06T01:17:10.013Z,8.10
2018-02-06T01:19:37.700Z,8.63
2018-02-06T01:22:06.404Z,8.93
2018-02-06T01:24:34.080Z,8.80
2018-02-06T01:27:02.387Z,9.27
2018-02-06T01:29:30.097Z,9.67
2018-02-06T01:31:58.593Z,9.80
2018-02-06T01:34:26.313Z,8.10
2018-02-06T01:36:53.991Z,9.37
2018-02-06T01:39:22.466Z,9.03
2018-02-06T01:41:50.150Z,8.80
2018-02-06T01:44:19.116Z,9.50
2018-02-06T01:46:47.062Z,9.03
2018-02-06T01:49:14.934Z,8.83
2018-02-06T01:51:42.638Z,9.73
2018-02-06T01:54:11.131Z,11.23
2018-02-06T01:56:38.853Z,9.67
2018-02-06T01:59:06.561Z,13.90
2018-02-06T02:01:34.271Z,11.57
2018-02-06T02:04:03.409Z,10.83
2018-02-06T02:06:31.110Z,12.27
2018-02-06T02:08:58.880Z,12.03
2018-02-06T02:11:26.597Z,12.27
2018-02-06T02:13:54.249Z,11.97
2018-02-06T02:16:22.675Z,13.53
2018-02-06T02:18:50.372Z,11.47
2018-02-06T02:21:18.112Z,12.43
2018-02-06T02:23:45.846Z,11.20
2018-02-06T02:26:13.569Z,10.53
2018-02-06T02:28:42.039Z,10.67
2018-02-06T02:31:09.772Z,10.90
2018-02-06T02:33:37.639Z,11.27
2018-02-06T02:36:05.409Z,11.20
2018-02-06T02:38:33.544Z,11.73
2018-02-06T02:41:01.216Z,10.17
2018-02-06T04:39:18.503Z,7.17
2018-02-06T04:41:48.399Z,6.70
2018-02-06T04:44:16.308Z,6.93
2018-02-06T04:46:45.637Z,7.00
2018-02-06T04:49:13.469Z,6.07
2018-02-06T04:51:42.015Z,6.23
2018-02-06T04:54:09.659Z,6.80
2018-02-06T04:56:37.356Z,6.97
2018-02-06T04:59:05.101Z,6.27
2018-02-06T05:01:32.739Z,5.53
2018-02-06T05:04:00.432Z,6.30
2018-02-06T05:06:28.286Z,6.03
2018-02-06T05:08:56.049Z,6.70
2018-02-06T05:11:23.916Z,6.10
2018-02-06T05:13:51.558Z,6.47
2018-02-06T05:16:19.237Z,6.07
2018-02-06T05:18:47.237Z,6.40
2018-02-06T05:21:16.384Z,6.63
2018-02-06T05:23:44.268Z,8.07
2018-02-06T05:26:12.880Z,7.80
2018-02-06T05:28:40.717Z,6.80
2018-02-06T05:31:08.584Z,7.03
2018-02-06T05:33:36.348Z,6.93
2018-02-06T05:36:04.751Z,6.77
2018-02-06T05:38:33.165Z,7.97
2018-02-06T05:41:00.808Z,7.13
2018-02-06T05:43:29.648Z,6.93
2018-02-06T05:45:57.521Z,8.67
2018-02-06T05:48:25.401Z,8.33
2018-02-06T05:50:53.329Z,7.93
2018-02-06T05:53:21.117Z,10.07
2018-02-06T05:55:48.985Z,10.87
2018-02-06T05:58:16.744Z,10.83
2018-02-06T06:00:44.719Z,8.60
2018-02-06T06:03:12.531Z,8.67
2018-02-06T06:05:40.259Z,9.20
2018-02-06T06:08:08.002Z,9.53
2018-02-06T06:10:36.033Z,10.03
2018-02-06T06:13:03.894Z,10.27
2018-02-06T06:15:31.706Z,10.27
2018-02-06T06:17:59.877Z,10.13
2018-02-06T06:20:28.156Z,10.20
2018-02-06T06:22:55.942Z,10.00
2018-02-06T06:25:23.701Z,9.90
2018-02-06T06:27:51.549Z,10.03
2018-02-06T06:30:19.513Z,11.13
2018-02-06T06:32:47.406Z,10.40
2018-02-06T06:35:16.974Z,10.40
2018-02-06T06:37:44.634Z,10.60
2018-02-06T06:40:13.042Z,10.57
2018-02-06T06:42:41.477Z,11.27
2018-02-06T06:45:09.267Z,10.40
2018-02-06T06:47:37.133Z,10.47
2018-02-06T06:50:04.896Z,10.60
2018-02-06T06:52:32.574Z,12.20
2018-02-06T06:55:00.356Z,12.37
2018-02-06T06:57:28.904Z,10.57
2018-02-06T06:59:56.705Z,10.23
2018-02-06T07:02:25.361Z,10.37
2018-02-06T07:04:55.725Z,9.97
2018-02-06T07:07:24.507Z,10.00
2018-02-06T07:09:53.068Z,9.60
2018-02-06T07:12:20.918Z,10.37
2018-02-06T07:14:48.793Z,10.70
2018-02-06T07:17:16.598Z,10.37
2018-02-06T07:19:45.129Z,11.00
2018-02-06T07:22:12.821Z,10.53
2018-02-06T07:24:40.485Z,10.20
2018-02-06T07:27:09.100Z,9.77
2018-02-06T07:29:37.588Z,11.00
2018-02-06T07:32:05.391Z,10.30
2018-02-06T07:34:33.238Z,11.17
2018-02-06T07:37:00.932Z,11.50
2018-02-06T07:39:28.664Z,11.77
2018-02-06T07:41:56.818Z,10.27
2018-02-06T07:44:24.535Z,7.63
2018-02-06T07:46:53.308Z,10.27
2018-02-06T07:49:22.621Z,11.27
2018-02-06T07:51:51.206Z,10.50
2018-02-06T07:54:19.633Z,10.97
2018-02-06T07:56:47.352Z,8.63
2018-02-06T07:59:15.096Z,9.03
2018-02-06T08:01:42.742Z,9.17
2018-02-06T08:04:10.534Z,8.67
2018-02-06T08:06:39.282Z,10.20
2018-02-06T08:09:06.949Z,8.63
2018-02-06T08:11:35.535Z,8.90
2018-02-06T08:14:03.982Z,8.87
2018-02-06T08:16:31.647Z,9.57
2018-02-06T08:18:59.531Z,9.37
2018-02-06T08:21:27.213Z,8.97
2018-02-06T08:23:54.944Z,8.60
2018-02-06T08:26:22.759Z,9.70
2018-02-06T08:28:51.302Z,7.73
2018-02-06T08:31:19.029Z,7.73
2018-02-06T08:33:46.900Z,8.00
2018-02-06T08:36:14.693Z,8.43
2018-02-06T08:38:46.052Z,8.07
2018-02-06T08:41:13.793Z,8.70
2018-02-06T08:43:41.513Z,8.53
2018-02-06T08:46:10.150Z,9.03
2018-02-06T08:48:37.994Z,8.87
2018-02-06T08:51:05.939Z,8.93
2018-02-06T08:53:33.908Z,9.77
2018-02-06T08:56:01.586Z,10.93
2018-02-06T08:58:29.927Z,9.30
2018-02-06T09:00:58.988Z,10.30
2018-02-06T09:03:27.349Z,9.47
2018-02-06T09:05:55.096Z,11.03
2018-02-06T09:08:22.789Z,9.77
2018-02-06T09:10:50.755Z,8.67
2018-02-06T09:13:19.340Z,9.07
2018-02-06T09:15:47.100Z,9.40
2018-02-06T09:18:14.897Z,7.93
2018-02-06T09:20:43.360Z,8.47
2018-02-06T09:23:11.209Z,7.97
2018-02-06T09:25:38.975Z,7.23
2018-02-06T09:28:07.319Z,7.97
2018-02-06T09:30:35.219Z,7.80
2018-02-06T09:33:03.695Z,8.90
2018-02-06T09:35:31.357Z,10.43
2018-02-06T09:37:59.344Z,6.90
2018-02-06T09:40:27.200Z,7.40
2018-02-06T09:42:56.285Z,7.20
2018-02-06T09:45:24.152Z,7.20
2018-02-06T09:47:52.635Z,6.07
2018-02-06T09:50:21.251Z,8.43
2018-02-06T09:52:49.899Z,7.67
2018-02-06T09:55:17.664Z,6.77
2018-02-06T09:57:45.318Z,6.50
2018-02-06T10:00:13.801Z,7.17
2018-02-06T10:02:41.568Z,6.73
2018-02-06T10:05:09.347Z,7.47
2018-02-06T10:07:37.018Z,6.67
2018-02-06T10:10:04.875Z,6.73
2018-02-06T10:12:33.440Z,6.70
2018-02-06T10:15:01.100Z,6.80
2018-02-06T10:17:28.784Z,5.93
2018-02-06T10:19:57.260Z,6.47
2018-02-06T10:22:24.936Z,5.90
2018-02-06T10:24:53.710Z,5.17
2018-02-06T10:27:21.397Z,5.53
2018-02-06T10:29:49.875Z,5.40
2018-02-06T10:32:17.576Z,5.77
2018-02-06T10:34:45.208Z,6.10
2018-02-06T10:37:13.819Z,5.53
2018-02-06T10:39:41.605Z,6.13
2018-02-06T10:42:09.371Z,5.43
2018-02-06T10:44:37.069Z,5.50
2018-02-06T10:47:05.543Z,5.40
2018-02-06T10:49:33.972Z,5.30
2018-02-06T10:52:01.924Z,5.40
2018-02-06T10:54:29.706Z,5.80
2018-02-06T10:56:57.606Z,6.77
2018-02-06T10:59:25.300Z,5.70
2018-02-06T11:01:53.641Z,5.30
2018-02-06T11:04:22.853Z,5.23
2018-02-06T11:06:51.347Z,5.40
2018-02-06T11:09:20.113Z,4.63
2018-02-06T11:11:48.118Z,5.73
2018-02-06T11:14:15.771Z,5.20
2018-02-06T11:16:45.134Z,6.27
2018-02-06T11:19:12.828Z,5.43
2018-02-06T11:21:41.244Z,5.10
2018-02-06T11:24:09.021Z,5.50
2018-02-06T11:26:36.796Z,5.40
2018-02-06T11:29:05.066Z,5.30
2018-02-06T11:31:32.823Z,5.40
2018-02-06T11:34:00.515Z,5.80
2018-02-06T11:36:28.974Z,5.57
2018-02-06T11:38:56.760Z,5.87
2018-02-06T11:41:24.486Z,5.30
2018-02-06T11:43:52.150Z,4.80
2018-02-06T11:46:19.849Z,5.37
2018-02-06T11:48:48.636Z,5.30
2018-02-06T11:51:17.181Z,5.77
2018-02-06T11:53:44.948Z,6.50
2018-02-06T11:56:13.336Z,6.20
2018-02-06T11:58:41.945Z,5.30
2018-02-06T12:01:11.267Z,5.57
2018-02-06T12:03:38.969Z,5.33
2018-02-06T12:06:06.666Z,5.53
2018-02-06T12:08:34.340Z,5.60
2018-02-06T12:11:02.745Z,6.27
2018-02-06T12:13:30.479Z,5.20
2018-02-06T12:15:59.029Z,6.27
2018-02-06T12:18:27.030Z,5.13
2018-02-06T12:20:57.367Z,7.77
2018-02-06T12:23:25.705Z,4.43
2018-02-06T12:25:53.962Z,5.63
2018-02-06T12:28:22.318Z,5.07
2018-02-06T12:30:50.202Z,5.47
2018-02-06T12:33:17.969Z,9.00
2018-02-06T12:35:45.845Z,5.27
2018-02-06T12:38:13.634Z,4.67
2018-02-06T12:40:42.284Z,5.40
2018-02-06T12:43:10.550Z,4.90
2018-02-06T12:45:38.313Z,5.10
2018-02-06T12:48:05.982Z,3.70
2018-02-06T12:50:33.717Z,4.43
2018-02-06T12:53:01.365Z,4.13
2018-02-06T12:55:29.167Z,4.80
2018-02-06T12:57:57.621Z,5.77
2018-02-06T13:00:25.910Z,4.70
2018-02-06T13:02:55.936Z,4.50
2018-02-06T13:05:25.518Z,5.17
2018-02-06T13:07:54.513Z,4.90
2018-02-06T13:10:22.377Z,5.13
2018-02-06T13:12:50.266Z,4.67
2018-02-06T13:15:18.623Z,4.37
2018-02-06T13:17:46.413Z,5.07
2018-02-06T13:20:14.208Z,4.93
2018-02-06T13:22:42.657Z,4.43
2018-02-06T13:25:10.354Z,4.27
2018-02-06T13:27:38.839Z,4.47
2018-02-06T13:30:08.271Z,4.50
2018-02-06T13:32:36.101Z,7.37
2018-02-06T13:35:04.030Z,5.73
2018-02-06T13:37:32.408Z,5.70
2018-02-06T13:40:00.275Z,3.77
2018-02-06T13:42:28.683Z,4.10
2018-02-06T13:44:56.366Z,4.10
2018-02-06T13:47:24.921Z,4.60
2018-02-06T13:49:52.908Z,4.50
2018-02-06T13:52:21.340Z,3.93
2018-02-06T13:54:49.127Z,3.80
2018-02-06T13:57:16.815Z,3.60
2018-02-06T13:59:45.275Z,3.00
2018-02-06T14:02:12.973Z,4.83
2018-02-06T14:04:40.596Z,4.07
2018-02-06T14:07:08.538Z,4.30
2018-02-06T14:09:36.303Z,4.50
2018-02-06T14:12:04.066Z,4.00
2018-02-06T14:14:31.757Z,5.03
2018-02-06T14:17:00.110Z,4.80
2018-02-06T14:19:27.814Z,5.13
2018-02-06T14:21:56.455Z,5.80
2018-02-06T14:24:24.236Z,4.57
2018-02-06T14:26:52.692Z,5.20
2018-02-06T14:29:20.708Z,5.43
2018-02-06T14:31:49.889Z,5.20
2018-02-06T14:34:17.727Z,5.00
2018-02-06T14:36:47.452Z,4.90
2018-02-06T14:39:18.088Z,6.03
2018-02-06T14:41:46.866Z,6.30
2018-02-06T14:44:15.238Z,4.93
2018-02-06T14:46:43.106Z,5.53
2018-02-06T14:49:12.841Z,6.40
2018-02-06T14:51:41.487Z,5.53
2018-02-06T14:54:09.353Z,5.17
2018-02-06T14:56:37.815Z,4.87
2018-02-06T14:59:08.705Z,4.93
2018-02-06T15:01:36.593Z,5.10
2018-02-06T15:04:07.531Z,5.03
2018-02-06T15:06:36.475Z,5.20
2018-02-06T15:09:04.449Z,5.70
2018-02-06T15:11:34.445Z,5.00
2018-02-06T15:14:02.431Z,5.33
2018-02-06T15:16:31.804Z,5.03
2018-02-06T15:19:00.035Z,5.57
2018-02-06T15:21:28.711Z,5.60
2018-02-06T15:23:58.132Z,4.97
2018-02-06T15:26:26.598Z,5.60
2018-02-06T15:28:54.238Z,5.63
2018-02-06T15:31:21.930Z,5.63
2018-02-06T15:33:51.013Z,5.50
2018-02-06T15:36:21.060Z,5.80
2018-02-06T15:38:50.251Z,5.53
2018-02-06T15:41:19.035Z,7.37
2018-02-06T15:43:47.664Z,8.20
2018-02-06T15:46:15.469Z,6.30
2018-02-06T15:48:44.805Z,7.00
2018-02-06T15:51:12.519Z,10.73
2018-02-06T15:53:42.609Z,7.73
2018-02-06T15:56:10.553Z,6.37
2018-02-06T15:58:39.672Z,5.63
2018-02-06T16:01:11.457Z,5.50
2018-02-06T16:03:39.966Z,5.20
2018-02-06T16:06:08.920Z,5.63
2018-02-06T16:08:36.735Z,5.63
2018-02-06T16:11:05.974Z,6.20
2018-02-06T16:13:34.893Z,5.70
2018-02-06T16:16:03.867Z,6.10
2018-02-06T16:18:31.880Z,5.63
2018-02-06T16:21:00.523Z,6.10
2018-02-06T16:23:31.171Z,6.53
2018-02-06T16:25:59.788Z,6.97
2018-02-06T16:28:27.680Z,6.93
2018-02-06T16:30:56.137Z,8.07
2018-02-06T16:33:23.925Z,8.03
2018-02-06T16:35:52.403Z,8.10
2018-02-06T16:38:20.393Z,8.53
2018-02-06T16:40:49.182Z,8.63
2018-02-06T16:43:18.667Z,8.10
2018-02-06T16:45:46.837Z,7.83
2018-02-06T16:48:15.201Z,9.00
2018-02-06T16:50:42.978Z,7.60
2018-02-06T16:53:10.765Z,8.27
2018-02-06T16:55:38.626Z,8.40
2018-02-06T16:58:07.406Z,8.53
2018-02-06T17:00:35.420Z,8.00
2018-02-06T17:03:04.893Z,7.97
2018-02-06T17:05:33.533Z,7.37
2018-02-06T17:08:02.330Z,8.10
2018-02-06T17:10:31.007Z,7.93
2018-02-06T17:12:59.515Z,8.40
2018-02-06T17:15:27.523Z,8.27
2018-02-06T17:17:56.880Z,7.60
2018-02-06T17:20:24.629Z,8.20
2018-02-06T17:22:52.700Z,8.73
2018-02-06T17:25:20.638Z,8.23
2018-02-06T17:27:49.254Z,21.13
2018-02-06T17:30:18.174Z,10.07
2018-02-06T17:32:46.236Z,9.80
2018-02-06T17:35:15.014Z,11.83
2018-02-06T17:37:43.283Z,10.17
2018-02-06T17:40:11.696Z,10.10
2018-02-06T17:42:41.906Z,9.30
2018-02-06T17:45:09.727Z,9.80
2018-02-06T17:47:37.721Z,9.67
2018-02-06T17:50:05.893Z,9.13
2018-02-06T17:52:34.849Z,9.63
2018-02-06T17:55:04.140Z,9.90
2018-02-06T17:57:32.686Z,10.07
2018-02-06T18:00:03.062Z,9.80
2018-02-06T18:02:31.072Z,9.77
2018-02-06T18:05:00.495Z,10.60
2018-02-06T18:07:30.387Z,8.63
2018-02-06T18:09:58.147Z,9.10
2018-02-06T18:12:26.625Z,9.17
2018-02-06T18:14:54.445Z,9.17
2018-02-06T18:17:23.445Z,9.63
2018-02-06T18:19:51.351Z,10.43
2018-02-06T18:22:19.150Z,8.53
2018-02-06T18:24:47.849Z,9.57
2018-02-06T18:27:15.778Z,10.57
2018-02-06T18:29:43.516Z,9.20
2018-02-06T18:32:11.357Z,7.67
2018-02-06T18:34:39.097Z,8.33
2018-02-06T18:37:06.969Z,8.87
2018-02-06T18:39:34.885Z,9.10
2018-02-06T18:42:02.588Z,10.47
2018-02-06T18:44:30.256Z,9.33
2018-02-06T18:46:58.809Z,9.53
2018-02-06T18:49:26.757Z,10.00
2018-02-06T18:51:54.518Z,10.97
2018-02-06T18:54:22.509Z,9.40
2018-02-06T18:56:52.153Z,8.70
2018-02-06T18:59:20.881Z,8.07
2018-02-06T19:01:49.033Z,8.97
2018-02-06T19:04:16.819Z,9.03
2018-02-06T19:06:44.787Z,7.90
2018-02-06T19:09:12.689Z,7.23
2018-02-06T19:11:41.273Z,8.33
2018-02-06T19:14:09.785Z,8.90
2018-02-06T19:16:37.466Z,8.17
2018-02-06T19:19:05.304Z,6.87
2018-02-06T19:21:33.882Z,8.20
2018-02-06T19:24:01.935Z,7.93
2018-02-06T19:26:30.533Z,8.40
2018-02-06T19:28:58.287Z,8.73
2018-02-06T19:31:26.825Z,7.47
2018-02-06T19:33:54.634Z,7.87
2018-02-06T19:36:23.673Z,8.93
2018-02-06T19:38:51.495Z,8.30
2018-02-06T19:41:19.257Z,8.43
2018-02-06T19:43:47.722Z,8.00
2018-02-06T19:46:16.552Z,9.63
2018-02-06T19:48:44.340Z,7.97
2018-02-06T19:51:12.103Z,8.37
2018-02-06T19:53:39.870Z,8.20
2018-02-06T19:56:07.628Z,7.73
2018-02-06T19:58:35.451Z,8.80
2018-02-06T20:01:03.325Z,7.47
2018-02-06T20:03:31.021Z,8.23
2018-02-06T20:05:58.785Z,8.50
2018-02-06T20:08:26.650Z,9.20
2018-02-06T20:10:54.541Z,8.97
2018-02-06T20:13:22.398Z,8.33
2018-02-06T20:15:50.248Z,9.17
2018-02-06T20:18:17.960Z,8.67
2018-02-06T20:20:46.434Z,8.80
2018-02-06T20:23:14.273Z,7.80
2018-02-06T20:25:43.487Z,8.90
2018-02-06T20:28:11.224Z,8.20
2018-02-06T20:30:38.980Z,9.07
2018-02-06T20:33:07.636Z,8.57
2018-02-06T20:35:35.427Z,8.80
2018-02-06T20:38:03.291Z,8.53
2018-02-06T20:40:31.085Z,9.03
2018-02-06T20:42:58.770Z,8.43
2018-02-06T20:45:27.301Z,8.53
2018-02-06T20:47:55.994Z,9.23
2018-02-06T20:50:23.750Z,9.63
2018-02-06T20:52:51.542Z,9.63
2018-02-06T20:55:19.207Z,9.63
2018-02-06T20:57:46.900Z,9.10
2018-02-06T21:00:15.490Z,9.30
2018-02-06T21:02:43.387Z,8.77
2018-02-06T21:05:11.151Z,9.23
2018-02-06T21:07:39.802Z,9.70
2018-02-06T21:10:07.532Z,9.57
2018-02-06T21:12:36.074Z,8.57
2018-02-06T21:15:03.945Z,9.20
2018-02-06T21:17:32.354Z,10.23
2018-02-06T21:20:00.800Z,9.17
2018-02-06T21:22:29.282Z,10.07
2018-02-06T21:24:56.977Z,9.53
2018-02-06T21:27:25.404Z,10.47
2018-02-06T21:29:53.190Z,10.57
2018-02-06T21:32:21.057Z,10.57
2018-02-06T21:34:48.948Z,10.00
2018-02-06T21:37:16.922Z,9.60
2018-02-06T21:39:44.939Z,10.43
2018-02-06T21:42:12.780Z,10.13
2018-02-06T21:44:40.489Z,9.67
2018-02-06T21:47:08.149Z,11.87
2018-02-06T21:49:35.856Z,11.50
2018-02-06T21:52:03.564Z,11.07
2018-02-06T21:54:31.443Z,12.47
2018-02-06T21:56:59.148Z,11.90
2018-02-06T21:59:26.960Z,12.43
2018-02-06T22:01:54.646Z,12.63
2018-02-06T22:04:23.131Z,11.77
2018-02-06T22:06:50.964Z,11.30
2018-02-06T22:09:18.604Z,12.10
2018-02-06T22:11:46.328Z,13.83
2018-02-06T22:14:14.774Z,11.70
2018-02-06T22:16:42.454Z,12.27
2018-02-06T22:19:10.157Z,12.50
2018-02-06T22:21:37.954Z,12.37
2018-02-06T22:24:05.718Z,12.67
2018-02-06T22:26:33.481Z,12.87
2018-02-06T22:29:01.191Z,12.50
2018-02-06T22:31:29.685Z,13.13
2018-02-06T22:33:57.630Z,13.03
2018-02-06T22:36:26.051Z,15.03
2018-02-06T22:38:53.768Z,13.87
2018-02-06T22:41:21.592Z,13.93
2018-02-06T22:43:49.262Z,13.33
2018-02-06T22:46:17.028Z,13.93
2018-02-06T22:48:44.720Z,14.83
2018-02-06T22:51:13.232Z,15.00
2018-02-06T22:53:41.170Z,13.60
2018-02-06T22:56:09.714Z,15.27
2018-02-06T22:58:37.361Z,14.00
2018-02-06T23:01:05.650Z,15.13
2018-02-06T23:03:33.383Z,15.53
2018-02-06T23:06:01.794Z,14.73
2018-02-06T23:08:29.940Z,14.23
2018-02-06T23:10:57.670Z,14.87
2018-02-06T23:13:26.207Z,15.00
2018-02-06T23:15:53.927Z,14.33
2018-02-06T23:18:22.386Z,16.47
2018-02-06T23:20:50.375Z,13.23
2018-02-06T23:23:18.183Z,14.10
2018-02-06T23:25:45.947Z,15.07
2018-02-06T23:28:14.645Z,13.67
2018-02-06T23:30:43.055Z,15.53
2018-02-06T23:33:11.482Z,16.60
2018-02-06T23:35:39.729Z,15.23
2018-02-06T23:38:07.531Z,15.60
2018-02-06T23:40:35.294Z,15.37
2018-02-06T23:43:03.212Z,16.10
2018-02-06T23:45:30.966Z,15.90
2018-02-06T23:47:59.410Z,17.47
2018-02-06T23:50:27.421Z,14.07
2018-02-06T23:52:55.236Z,16.10
2018-02-06T23:55:24.637Z,14.83
2018-02-06T23:57:53.178Z,15.73
